Skip Navigation LinksHome page > Tools > METAR decoder Skip Navigation Links

METAR decoder

Settings

METAR

Chicago O'Hare Intl, Chicago

For information only: do not use for flight planning or navigation.
Latest weather
Observation time Thursday, July 30, 2015 12:51 PM CDT
Local time Thursday, July 30, 2015 1:09 PM CDT
Flight conditions Visual Meteorological Conditions
Winds
Wind direction West-Northwest (290°)
Wind speed 15 mph
Visibility 10 mi.
Sky condition
Ceiling unlimited
Cloud layer few clouds 7,000 ft.
Temperature 86°F
Dewpoint 54°F
Altimeter 30.06 in.Hg
Pressure change last 3 hours0.00 in.Hg
Pressure falling more quickly
Derived measurements
Relative humidity 34%
Heat index 86°F
Density altitude 2431 ft.
Sea-level pressure 30.04 in.Hg
Climate data
Temperature minimum, last 6 hours 67°F
Temperature maximum, last 6 hours 87°F
Remarks
Automated weather observing station with precipitation discriminator.
METAR KORD 301751Z 29013KT 10SM FEW070 30/12 A3006 RMK AO2 SLP173 T03000122 10306 20194 58000

InnerDrive.Weather 4.0.5567.0 Release CLR 4.0.30319.34014
Copyright ©2015 Inner Drive Technology. All rights reserved. Portions Copyright ©1986-2015 David Braverman.

Find weather

Site navigation


Skip Navigation Links

Place info

Page info

PayPal - The safer, easier way to pay online!

Return home.

Copyright ©2015 Inner Drive Technology. Purveyors of fine, hand-crafted computer software. Page printed 2015-07-30T18:09:44 UTC.